sensor_id;sensor_type;location;lat;lon;timestamp;P1;durP1;ratioP1;P2;durP2;ratioP2
19285;SDS011;9776;50.798;6.430;2023-05-10T00:01:38;10.38;;;7.57;;
19285;SDS011;9776;50.798;6.430;2023-05-10T00:04:05;10.48;;;7.35;;
19285;SDS011;9776;50.798;6.430;2023-05-10T00:06:32;11.68;;;7.82;;
19285;SDS011;9776;50.798;6.430;2023-05-10T00:08:59;11.32;;;7.45;;
19285;SDS011;9776;50.798;6.430;2023-05-10T00:11:26;9.25;;;6.68;;
19285;SDS011;9776;50.798;6.430;2023-05-10T00:13:54;10.65;;;7.28;;
19285;SDS011;9776;50.798;6.430;2023-05-10T00:16:20;8.25;;;5.70;;
19285;SDS011;9776;50.798;6.430;2023-05-10T00:18:47;7.68;;;5.20;;
19285;SDS011;9776;50.798;6.430;2023-05-10T00:21:14;6.15;;;4.55;;
19285;SDS011;9776;50.798;6.430;2023-05-10T00:23:40;5.50;;;4.13;;
19285;SDS011;9776;50.798;6.430;2023-05-10T00:26:07;4.93;;;3.60;;
19285;SDS011;9776;50.798;6.430;2023-05-10T00:28:34;5.88;;;3.97;;
19285;SDS011;9776;50.798;6.430;2023-05-10T00:31:02;5.47;;;3.85;;
19285;SDS011;9776;50.798;6.430;2023-05-10T00:33:28;6.35;;;4.50;;
19285;SDS011;9776;50.798;6.430;2023-05-10T00:35:55;6.93;;;4.75;;
19285;SDS011;9776;50.798;6.430;2023-05-10T00:38:22;8.43;;;5.38;;
19285;SDS011;9776;50.798;6.430;2023-05-10T00:40:48;8.13;;;5.45;;
19285;SDS011;9776;50.798;6.430;2023-05-10T00:43:15;8.75;;;5.40;;
19285;SDS011;9776;50.798;6.430;2023-05-10T00:45:42;9.80;;;6.03;;
19285;SDS011;9776;50.798;6.430;2023-05-10T00:48:10;11.45;;;6.05;;
19285;SDS011;9776;50.798;6.430;2023-05-10T00:50:37;9.70;;;6.45;;
19285;SDS011;9776;50.798;6.430;2023-05-10T00:53:05;10.55;;;6.68;;
19285;SDS011;9776;50.798;6.430;2023-05-10T00:55:32;9.73;;;6.70;;
19285;SDS011;9776;50.798;6.430;2023-05-10T00:57:58;11.73;;;7.00;;
19285;SDS011;9776;50.798;6.430;2023-05-10T01:00:25;11.80;;;7.80;;
19285;SDS011;9776;50.798;6.430;2023-05-10T01:02:52;10.63;;;7.18;;
19285;SDS011;9776;50.798;6.430;2023-05-10T01:05:21;11.95;;;7.43;;
19285;SDS011;9776;50.798;6.430;2023-05-10T01:07:47;12.18;;;7.43;;
19285;SDS011;9776;50.798;6.430;2023-05-10T01:10:14;13.38;;;7.93;;
19285;SDS011;9776;50.798;6.430;2023-05-10T01:12:44;13.52;;;8.18;;
19285;SDS011;9776;50.798;6.430;2023-05-10T01:15:12;12.95;;;8.38;;
19285;SDS011;9776;50.798;6.430;2023-05-10T01:17:41;11.50;;;7.63;;
19285;SDS011;9776;50.798;6.430;2023-05-10T01:20:10;14.30;;;8.90;;
19285;SDS011;9776;50.798;6.430;2023-05-10T01:22:54;15.60;;;8.60;;
19285;SDS011;9776;50.798;6.430;2023-05-10T01:25:55;16.35;;;9.75;;
19285;SDS011;9776;50.798;6.430;2023-05-10T01:31:35;14.00;;;9.45;;
19285;SDS011;9776;50.798;6.430;2023-05-10T01:34:34;16.40;;;9.75;;
19285;SDS011;9776;50.798;6.430;2023-05-10T01:37:04;15.05;;;9.85;;
19285;SDS011;9776;50.798;6.430;2023-05-10T01:39:36;15.13;;;9.27;;
19285;SDS011;9776;50.798;6.430;2023-05-10T01:42:10;15.73;;;9.52;;
19285;SDS011;9776;50.798;6.430;2023-05-10T01:44:42;13.13;;;9.00;;
19285;SDS011;9776;50.798;6.430;2023-05-10T01:47:17;16.38;;;10.35;;
19285;SDS011;9776;50.798;6.430;2023-05-10T01:49:50;16.17;;;10.10;;
19285;SDS011;9776;50.798;6.430;2023-05-10T01:52:19;14.00;;;9.18;;
19285;SDS011;9776;50.798;6.430;2023-05-10T01:55:00;16.85;;;8.85;;
19285;SDS011;9776;50.798;6.430;2023-05-10T01:57:32;12.95;;;8.18;;
19285;SDS011;9776;50.798;6.430;2023-05-10T02:00:01;10.90;;;7.43;;
19285;SDS011;9776;50.798;6.430;2023-05-10T02:02:30;11.00;;;7.57;;
19285;SDS011;9776;50.798;6.430;2023-05-10T02:05:03;14.40;;;7.55;;
19285;SDS011;9776;50.798;6.430;2023-05-10T02:07:32;12.40;;;7.40;;
19285;SDS011;9776;50.798;6.430;2023-05-10T02:10:01;11.60;;;7.97;;
19285;SDS011;9776;50.798;6.430;2023-05-10T02:12:30;10.82;;;7.30;;
19285;SDS011;9776;50.798;6.430;2023-05-10T02:14:58;11.77;;;7.45;;
19285;SDS011;9776;50.798;6.430;2023-05-10T02:17:27;12.82;;;7.72;;
19285;SDS011;9776;50.798;6.430;2023-05-10T02:19:58;11.20;;;7.85;;
19285;SDS011;9776;50.798;6.430;2023-05-10T02:22:25;13.88;;;8.90;;
19285;SDS011;9776;50.798;6.430;2023-05-10T02:24:53;12.90;;;8.60;;
19285;SDS011;9776;50.798;6.430;2023-05-10T02:27:21;13.10;;;8.55;;
19285;SDS011;9776;50.798;6.430;2023-05-10T02:29:49;13.05;;;8.35;;
19285;SDS011;9776;50.798;6.430;2023-05-10T02:32:17;12.30;;;8.20;;
19285;SDS011;9776;50.798;6.430;2023-05-10T02:34:45;13.20;;;8.20;;
19285;SDS011;9776;50.798;6.430;2023-05-10T02:37:18;12.70;;;8.65;;
19285;SDS011;9776;50.798;6.430;2023-05-10T02:39:45;12.35;;;8.77;;
19285;SDS011;9776;50.798;6.430;2023-05-10T02:42:13;12.15;;;8.63;;
19285;SDS011;9776;50.798;6.430;2023-05-10T02:44:44;15.13;;;10.00;;
19285;SDS011;9776;50.798;6.430;2023-05-10T02:47:14;15.13;;;9.48;;
19285;SDS011;9776;50.798;6.430;2023-05-10T02:49:41;15.13;;;8.40;;
19285;SDS011;9776;50.798;6.430;2023-05-10T02:52:08;11.82;;;8.32;;
19285;SDS011;9776;50.798;6.430;2023-05-10T02:54:38;12.90;;;8.05;;
19285;SDS011;9776;50.798;6.430;2023-05-10T02:57:07;12.55;;;7.50;;
19285;SDS011;9776;50.798;6.430;2023-05-10T02:59:37;10.80;;;7.03;;
19285;SDS011;9776;50.798;6.430;2023-05-10T03:02:03;9.02;;;7.10;;
19285;SDS011;9776;50.798;6.430;2023-05-10T03:04:31;9.57;;;6.60;;
19285;SDS011;9776;50.798;6.430;2023-05-10T03:06:57;7.47;;;5.47;;
19285;SDS011;9776;50.798;6.430;2023-05-10T03:09:24;8.73;;;5.68;;
19285;SDS011;9776;50.798;6.430;2023-05-10T03:11:55;8.48;;;5.75;;
19285;SDS011;9776;50.798;6.430;2023-05-10T03:14:33;8.52;;;5.75;;
19285;SDS011;9776;50.798;6.430;2023-05-10T03:17:10;8.85;;;5.53;;
19285;SDS011;9776;50.798;6.430;2023-05-10T03:19:52;7.85;;;5.60;;
19285;SDS011;9776;50.798;6.430;2023-05-10T03:22:21;8.93;;;5.82;;
19285;SDS011;9776;50.798;6.430;2023-05-10T03:24:51;12.77;;;6.25;;
19285;SDS011;9776;50.798;6.430;2023-05-10T03:27:23;11.00;;;6.50;;
19285;SDS011;9776;50.798;6.430;2023-05-10T03:29:52;9.35;;;6.13;;
19285;SDS011;9776;50.798;6.430;2023-05-10T03:32:21;8.32;;;6.22;;
19285;SDS011;9776;50.798;6.430;2023-05-10T03:34:48;11.93;;;7.35;;
19285;SDS011;9776;50.798;6.430;2023-05-10T03:37:15;10.00;;;6.85;;
19285;SDS011;9776;50.798;6.430;2023-05-10T03:39:41;12.25;;;7.43;;
19285;SDS011;9776;50.798;6.430;2023-05-10T03:42:08;11.32;;;7.68;;
19285;SDS011;9776;50.798;6.430;2023-05-10T03:44:38;11.88;;;7.78;;
19285;SDS011;9776;50.798;6.430;2023-05-10T03:47:04;12.25;;;7.63;;
19285;SDS011;9776;50.798;6.430;2023-05-10T03:49:31;12.15;;;8.55;;
19285;SDS011;9776;50.798;6.430;2023-05-10T03:51:58;15.63;;;8.98;;
19285;SDS011;9776;50.798;6.430;2023-05-10T03:54:24;15.32;;;9.02;;
19285;SDS011;9776;50.798;6.430;2023-05-10T03:56:52;14.13;;;9.43;;
19285;SDS011;9776;50.798;6.430;2023-05-10T03:59:18;16.77;;;9.82;;
19285;SDS011;9776;50.798;6.430;2023-05-10T04:01:46;17.67;;;9.77;;
19285;SDS011;9776;50.798;6.430;2023-05-10T04:04:13;17.50;;;10.15;;
19285;SDS011;9776;50.798;6.430;2023-05-10T04:06:40;16.13;;;10.30;;
19285;SDS011;9776;50.798;6.430;2023-05-10T04:09:07;15.45;;;9.98;;
19285;SDS011;9776;50.798;6.430;2023-05-10T04:11:34;16.10;;;10.25;;
19285;SDS011;9776;50.798;6.430;2023-05-10T04:14:00;16.33;;;10.52;;
19285;SDS011;9776;50.798;6.430;2023-05-10T04:16:27;17.55;;;10.18;;
19285;SDS011;9776;50.798;6.430;2023-05-10T04:18:55;15.38;;;9.25;;
19285;SDS011;9776;50.798;6.430;2023-05-10T04:21:22;16.00;;;10.05;;
19285;SDS011;9776;50.798;6.430;2023-05-10T04:23:49;17.38;;;9.63;;
19285;SDS011;9776;50.798;6.430;2023-05-10T04:26:15;15.60;;;9.27;;
19285;SDS011;9776;50.798;6.430;2023-05-10T04:28:42;15.35;;;8.50;;
19285;SDS011;9776;50.798;6.430;2023-05-10T04:31:09;13.77;;;8.10;;
19285;SDS011;9776;50.798;6.430;2023-05-10T04:33:36;14.93;;;8.70;;
19285;SDS011;9776;50.798;6.430;2023-05-10T04:36:05;12.38;;;7.43;;
19285;SDS011;9776;50.798;6.430;2023-05-10T04:38:32;13.10;;;7.82;;
19285;SDS011;9776;50.798;6.430;2023-05-10T04:41:04;12.93;;;6.28;;
19285;SDS011;9776;50.798;6.430;2023-05-10T04:43:32;11.82;;;7.07;;
19285;SDS011;9776;50.798;6.430;2023-05-10T04:45:58;12.40;;;6.45;;
19285;SDS011;9776;50.798;6.430;2023-05-10T04:48:25;12.25;;;6.22;;
19285;SDS011;9776;50.798;6.430;2023-05-10T04:50:52;12.23;;;6.78;;
19285;SDS011;9776;50.798;6.430;2023-05-10T04:53:20;10.75;;;6.10;;
19285;SDS011;9776;50.798;6.430;2023-05-10T04:55:47;11.40;;;6.20;;
19285;SDS011;9776;50.798;6.430;2023-05-10T04:58:14;8.27;;;5.15;;
19285;SDS011;9776;50.798;6.430;2023-05-10T05:00:40;11.02;;;6.32;;
19285;SDS011;9776;50.798;6.430;2023-05-10T05:03:07;10.27;;;5.78;;
19285;SDS011;9776;50.798;6.430;2023-05-10T05:05:34;10.05;;;5.40;;
19285;SDS011;9776;50.798;6.430;2023-05-10T05:08:01;12.05;;;6.10;;
19285;SDS011;9776;50.798;6.430;2023-05-10T05:10:29;9.25;;;5.30;;
19285;SDS011;9776;50.798;6.430;2023-05-10T05:12:56;8.43;;;5.00;;
19285;SDS011;9776;50.798;6.430;2023-05-10T05:15:22;7.95;;;4.68;;
19285;SDS011;9776;50.798;6.430;2023-05-10T05:17:49;8.10;;;5.03;;
19285;SDS011;9776;50.798;6.430;2023-05-10T05:20:16;9.52;;;4.28;;
19285;SDS011;9776;50.798;6.430;2023-05-10T05:22:44;7.50;;;4.60;;
19285;SDS011;9776;50.798;6.430;2023-05-10T05:25:11;9.80;;;4.63;;
19285;SDS011;9776;50.798;6.430;2023-05-10T05:27:39;7.80;;;4.70;;
19285;SDS011;9776;50.798;6.430;2023-05-10T05:30:06;10.85;;;4.53;;
19285;SDS011;9776;50.798;6.430;2023-05-10T05:32:33;9.27;;;4.95;;
19285;SDS011;9776;50.798;6.430;2023-05-10T05:35:00;10.65;;;5.55;;
19285;SDS011;9776;50.798;6.430;2023-05-10T05:37:26;9.57;;;5.00;;
19285;SDS011;9776;50.798;6.430;2023-05-10T05:39:53;11.70;;;4.57;;
19285;SDS011;9776;50.798;6.430;2023-05-10T05:42:20;10.13;;;5.40;;
19285;SDS011;9776;50.798;6.430;2023-05-10T05:44:48;10.38;;;5.25;;
19285;SDS011;9776;50.798;6.430;2023-05-10T05:47:15;11.68;;;5.65;;
19285;SDS011;9776;50.798;6.430;2023-05-10T05:49:41;12.52;;;5.20;;
19285;SDS011;9776;50.798;6.430;2023-05-10T05:52:10;9.18;;;5.18;;
19285;SDS011;9776;50.798;6.430;2023-05-10T05:54:37;13.05;;;5.45;;
19285;SDS011;9776;50.798;6.430;2023-05-10T05:57:04;11.95;;;5.72;;
19285;SDS011;9776;50.798;6.430;2023-05-10T05:59:30;9.48;;;5.25;;
19285;SDS011;9776;50.798;6.430;2023-05-10T06:01:58;11.90;;;4.90;;
19285;SDS011;9776;50.798;6.430;2023-05-10T06:04:25;11.23;;;4.80;;
19285;SDS011;9776;50.798;6.430;2023-05-10T06:06:52;8.38;;;4.38;;
19285;SDS011;9776;50.798;6.430;2023-05-10T06:09:18;12.32;;;4.88;;
19285;SDS011;9776;50.798;6.430;2023-05-10T06:11:45;8.57;;;4.28;;
19285;SDS011;9776;50.798;6.430;2023-05-10T06:14:12;9.68;;;4.05;;
19285;SDS011;9776;50.798;6.430;2023-05-10T06:16:38;9.65;;;4.47;;
19285;SDS011;9776;50.798;6.430;2023-05-10T06:19:06;9.32;;;4.40;;
19285;SDS011;9776;50.798;6.430;2023-05-10T06:21:33;8.23;;;3.83;;
19285;SDS011;9776;50.798;6.430;2023-05-10T06:24:00;6.13;;;3.75;;
19285;SDS011;9776;50.798;6.430;2023-05-10T06:26:27;7.50;;;3.83;;
19285;SDS011;9776;50.798;6.430;2023-05-10T06:28:54;7.57;;;3.47;;
19285;SDS011;9776;50.798;6.430;2023-05-10T06:31:20;5.32;;;3.13;;
19285;SDS011;9776;50.798;6.430;2023-05-10T06:33:47;8.40;;;2.50;;
19285;SDS011;9776;50.798;6.430;2023-05-10T06:36:15;6.82;;;3.50;;
19285;SDS011;9776;50.798;6.430;2023-05-10T06:38:41;5.18;;;3.00;;
19285;SDS011;9776;50.798;6.430;2023-05-10T06:41:09;4.13;;;2.50;;
19285;SDS011;9776;50.798;6.430;2023-05-10T06:43:35;4.68;;;2.40;;
19285;SDS011;9776;50.798;6.430;2023-05-10T06:46:05;4.68;;;2.00;;
19285;SDS011;9776;50.798;6.430;2023-05-10T06:48:31;5.43;;;1.80;;
19285;SDS011;9776;50.798;6.430;2023-05-10T06:50:58;3.08;;;1.77;;
19285;SDS011;9776;50.798;6.430;2023-05-10T06:53:26;2.33;;;1.30;;
19285;SDS011;9776;50.798;6.430;2023-05-10T06:55:52;2.22;;;1.27;;
19285;SDS011;9776;50.798;6.430;2023-05-10T06:58:19;1.90;;;1.27;;
19285;SDS011;9776;50.798;6.430;2023-05-10T07:00:46;1.77;;;1.15;;
19285;SDS011;9776;50.798;6.430;2023-05-10T07:03:12;2.30;;;1.05;;
19285;SDS011;9776;50.798;6.430;2023-05-10T07:05:39;2.13;;;1.30;;
19285;SDS011;9776;50.798;6.430;2023-05-10T07:08:05;2.00;;;0.95;;
19285;SDS011;9776;50.798;6.430;2023-05-10T07:10:33;1.67;;;0.90;;
19285;SDS011;9776;50.798;6.430;2023-05-10T07:13:00;1.48;;;0.80;;
19285;SDS011;9776;50.798;6.430;2023-05-10T07:15:27;1.45;;;0.82;;
19285;SDS011;9776;50.798;6.430;2023-05-10T07:17:54;0.70;;;0.60;;
19285;SDS011;9776;50.798;6.430;2023-05-10T07:20:21;1.38;;;0.60;;
19285;SDS011;9776;50.798;6.430;2023-05-10T07:22:47;1.73;;;0.60;;
19285;SDS011;9776;50.798;6.430;2023-05-10T07:25:14;1.17;;;0.50;;
19285;SDS011;9776;50.798;6.430;2023-05-10T07:27:42;0.52;;;0.40;;
19285;SDS011;9776;50.798;6.430;2023-05-10T07:30:09;0.40;;;0.30;;
19285;SDS011;9776;50.798;6.430;2023-05-10T07:32:36;0.68;;;0.40;;
19285;SDS011;9776;50.798;6.430;2023-05-10T07:35:04;1.02;;;0.40;;
19285;SDS011;9776;50.798;6.430;2023-05-10T07:37:31;1.73;;;0.38;;
19285;SDS011;9776;50.798;6.430;2023-05-10T07:39:58;0.35;;;0.20;;
19285;SDS011;9776;50.798;6.430;2023-05-10T07:42:24;0.40;;;0.30;;
19285;SDS011;9776;50.798;6.430;2023-05-10T07:44:53;0.52;;;0.40;;
19285;SDS011;9776;50.798;6.430;2023-05-10T07:47:19;0.60;;;0.40;;
19285;SDS011;9776;50.798;6.430;2023-05-10T07:49:46;0.68;;;0.40;;
19285;SDS011;9776;50.798;6.430;2023-05-10T07:52:13;0.90;;;0.40;;
19285;SDS011;9776;50.798;6.430;2023-05-10T07:54:40;0.55;;;0.40;;
19285;SDS011;9776;50.798;6.430;2023-05-10T07:57:07;0.55;;;0.30;;
19285;SDS011;9776;50.798;6.430;2023-05-10T07:59:33;0.50;;;0.47;;
19285;SDS011;9776;50.798;6.430;2023-05-10T08:02:01;0.93;;;0.40;;
19285;SDS011;9776;50.798;6.430;2023-05-10T08:04:28;1.33;;;0.95;;
19285;SDS011;9776;50.798;6.430;2023-05-10T08:06:54;0.80;;;0.60;;
19285;SDS011;9776;50.798;6.430;2023-05-10T08:09:21;1.05;;;0.50;;
19285;SDS011;9776;50.798;6.430;2023-05-10T08:11:48;0.77;;;0.60;;
19285;SDS011;9776;50.798;6.430;2023-05-10T08:14:15;1.73;;;0.93;;
19285;SDS011;9776;50.798;6.430;2023-05-10T08:16:42;1.42;;;0.90;;
19285;SDS011;9776;50.798;6.430;2023-05-10T08:19:10;1.40;;;1.10;;
19285;SDS011;9776;50.798;6.430;2023-05-10T08:21:36;1.02;;;0.70;;
19285;SDS011;9776;50.798;6.430;2023-05-10T08:24:05;2.17;;;1.25;;
19285;SDS011;9776;50.798;6.430;2023-05-10T08:26:32;2.75;;;1.52;;
19285;SDS011;9776;50.798;6.430;2023-05-10T08:28:59;8.57;;;3.90;;
19285;SDS011;9776;50.798;6.430;2023-05-10T08:31:26;9.15;;;4.63;;
19285;SDS011;9776;50.798;6.430;2023-05-10T08:33:53;9.85;;;5.25;;
19285;SDS011;9776;50.798;6.430;2023-05-10T08:36:21;9.85;;;5.50;;
19285;SDS011;9776;50.798;6.430;2023-05-10T08:38:49;9.68;;;5.20;;
19285;SDS011;9776;50.798;6.430;2023-05-10T08:41:17;9.10;;;4.97;;
19285;SDS011;9776;50.798;6.430;2023-05-10T08:43:46;7.95;;;4.72;;
19285;SDS011;9776;50.798;6.430;2023-05-10T08:46:13;7.30;;;4.22;;
19285;SDS011;9776;50.798;6.430;2023-05-10T08:48:43;8.00;;;4.25;;
19285;SDS011;9776;50.798;6.430;2023-05-10T08:51:10;6.68;;;4.07;;
19285;SDS011;9776;50.798;6.430;2023-05-10T08:53:41;6.55;;;3.90;;
19285;SDS011;9776;50.798;6.430;2023-05-10T08:56:08;7.22;;;4.13;;
19285;SDS011;9776;50.798;6.430;2023-05-10T08:58:34;6.78;;;3.90;;
19285;SDS011;9776;50.798;6.430;2023-05-10T09:01:01;6.25;;;3.53;;
19285;SDS011;9776;50.798;6.430;2023-05-10T09:03:29;7.40;;;3.40;;
19285;SDS011;9776;50.798;6.430;2023-05-10T09:05:56;6.80;;;3.38;;
19285;SDS011;9776;50.798;6.430;2023-05-10T09:08:23;5.43;;;3.38;;
19285;SDS011;9776;50.798;6.430;2023-05-10T09:10:52;4.03;;;2.25;;
19285;SDS011;9776;50.798;6.430;2023-05-10T09:13:20;1.55;;;1.10;;
19285;SDS011;9776;50.798;6.430;2023-05-10T09:15:47;1.60;;;0.98;;
19285;SDS011;9776;50.798;6.430;2023-05-10T09:18:14;2.72;;;0.70;;
19285;SDS011;9776;50.798;6.430;2023-05-10T09:20:41;3.67;;;0.75;;
19285;SDS011;9776;50.798;6.430;2023-05-10T09:23:08;1.17;;;0.70;;
19285;SDS011;9776;50.798;6.430;2023-05-10T09:25:34;0.90;;;0.70;;
19285;SDS011;9776;50.798;6.430;2023-05-10T09:28:06;1.38;;;0.73;;
19285;SDS011;9776;50.798;6.430;2023-05-10T09:30:34;1.45;;;0.50;;
19285;SDS011;9776;50.798;6.430;2023-05-10T09:33:00;1.02;;;0.70;;
19285;SDS011;9776;50.798;6.430;2023-05-10T09:35:27;0.80;;;0.60;;
19285;SDS011;9776;50.798;6.430;2023-05-10T09:37:56;0.90;;;0.60;;
19285;SDS011;9776;50.798;6.430;2023-05-10T09:40:25;0.88;;;0.50;;
19285;SDS011;9776;50.798;6.430;2023-05-10T09:42:55;0.73;;;0.60;;
19285;SDS011;9776;50.798;6.430;2023-05-10T09:45:25;0.60;;;0.50;;
19285;SDS011;9776;50.798;6.430;2023-05-10T09:47:53;0.75;;;0.50;;
19285;SDS011;9776;50.798;6.430;2023-05-10T09:50:20;1.05;;;0.60;;
19285;SDS011;9776;50.798;6.430;2023-05-10T09:52:48;0.70;;;0.60;;
19285;SDS011;9776;50.798;6.430;2023-05-10T09:55:17;0.88;;;0.60;;
19285;SDS011;9776;50.798;6.430;2023-05-10T09:57:45;0.90;;;0.63;;
19285;SDS011;9776;50.798;6.430;2023-05-10T10:00:15;0.80;;;0.50;;
19285;SDS011;9776;50.798;6.430;2023-05-10T10:02:46;0.85;;;0.57;;
19285;SDS011;9776;50.798;6.430;2023-05-10T10:05:14;0.68;;;0.52;;
19285;SDS011;9776;50.798;6.430;2023-05-10T10:07:41;0.77;;;0.70;;
19285;SDS011;9776;50.798;6.430;2023-05-10T10:10:08;1.48;;;0.90;;
19285;SDS011;9776;50.798;6.430;2023-05-10T10:12:37;1.15;;;0.85;;
19285;SDS011;9776;50.798;6.430;2023-05-10T10:15:06;2.05;;;0.90;;
19285;SDS011;9776;50.798;6.430;2023-05-10T10:17:34;1.00;;;0.68;;
19285;SDS011;9776;50.798;6.430;2023-05-10T10:20:03;1.00;;;0.80;;
19285;SDS011;9776;50.798;6.430;2023-05-10T10:22:31;2.35;;;0.95;;
19285;SDS011;9776;50.798;6.430;2023-05-10T10:24:58;1.10;;;0.90;;
19285;SDS011;9776;50.798;6.430;2023-05-10T10:27:26;0.80;;;0.80;;
19285;SDS011;9776;50.798;6.430;2023-05-10T10:30:02;1.70;;;0.70;;
19285;SDS011;9776;50.798;6.430;2023-05-10T10:32:38;2.42;;;1.08;;
19285;SDS011;9776;50.798;6.430;2023-05-10T10:35:20;1.02;;;0.80;;
19285;SDS011;9776;50.798;6.430;2023-05-10T10:37:47;1.02;;;0.75;;
19285;SDS011;9776;50.798;6.430;2023-05-10T10:40:23;2.30;;;0.80;;
19285;SDS011;9776;50.798;6.430;2023-05-10T10:42:51;1.08;;;0.80;;
19285;SDS011;9776;50.798;6.430;2023-05-10T10:45:19;1.50;;;0.80;;
19285;SDS011;9776;50.798;6.430;2023-05-10T10:47:47;2.05;;;0.80;;
19285;SDS011;9776;50.798;6.430;2023-05-10T10:50:14;1.05;;;0.73;;
19285;SDS011;9776;50.798;6.430;2023-05-10T10:52:43;0.90;;;0.73;;
19285;SDS011;9776;50.798;6.430;2023-05-10T10:55:11;0.95;;;0.77;;
19285;SDS011;9776;50.798;6.430;2023-05-10T10:57:43;1.33;;;0.82;;
19285;SDS011;9776;50.798;6.430;2023-05-10T11:00:23;1.48;;;1.00;;
19285;SDS011;9776;50.798;6.430;2023-05-10T11:02:51;1.38;;;0.93;;
19285;SDS011;9776;50.798;6.430;2023-05-10T11:05:26;1.80;;;0.95;;
19285;SDS011;9776;50.798;6.430;2023-05-10T11:08:08;2.67;;;1.90;;
19285;SDS011;9776;50.798;6.430;2023-05-10T11:10:36;0.88;;;0.80;;
19285;SDS011;9776;50.798;6.430;2023-05-10T11:13:04;1.67;;;0.80;;
19285;SDS011;9776;50.798;6.430;2023-05-10T11:15:33;1.90;;;0.90;;
19285;SDS011;9776;50.798;6.430;2023-05-10T11:18:15;1.25;;;0.80;;
19285;SDS011;9776;50.798;6.430;2023-05-10T11:20:43;1.65;;;0.93;;
19285;SDS011;9776;50.798;6.430;2023-05-10T11:23:13;1.20;;;1.10;;
19285;SDS011;9776;50.798;6.430;2023-05-10T11:25:42;1.92;;;0.82;;
19285;SDS011;9776;50.798;6.430;2023-05-10T11:28:10;1.50;;;1.27;;
19285;SDS011;9776;50.798;6.430;2023-05-10T11:30:37;1.80;;;1.30;;
19285;SDS011;9776;50.798;6.430;2023-05-10T11:33:05;1.30;;;1.13;;
19285;SDS011;9776;50.798;6.430;2023-05-10T11:35:36;0.80;;;0.73;;
19285;SDS011;9776;50.798;6.430;2023-05-10T11:38:05;1.00;;;0.75;;
19285;SDS011;9776;50.798;6.430;2023-05-10T11:40:33;1.30;;;0.70;;
19285;SDS011;9776;50.798;6.430;2023-05-10T11:43:00;1.80;;;0.60;;
19285;SDS011;9776;50.798;6.430;2023-05-10T11:45:28;0.90;;;0.60;;
19285;SDS011;9776;50.798;6.430;2023-05-10T11:47:56;0.70;;;0.50;;
19285;SDS011;9776;50.798;6.430;2023-05-10T11:50:24;0.90;;;0.50;;
19285;SDS011;9776;50.798;6.430;2023-05-10T11:52:51;1.70;;;0.55;;
19285;SDS011;9776;50.798;6.430;2023-05-10T11:55:18;0.60;;;0.43;;
19285;SDS011;9776;50.798;6.430;2023-05-10T11:57:46;1.23;;;0.60;;
19285;SDS011;9776;50.798;6.430;2023-05-10T12:00:13;1.80;;;0.65;;
19285;SDS011;9776;50.798;6.430;2023-05-10T12:02:40;3.45;;;0.77;;
19285;SDS011;9776;50.798;6.430;2023-05-10T12:05:08;1.40;;;0.70;;
19285;SDS011;9776;50.798;6.430;2023-05-10T12:07:35;0.73;;;0.57;;
19285;SDS011;9776;50.798;6.430;2023-05-10T12:10:03;0.80;;;0.52;;
19285;SDS011;9776;50.798;6.430;2023-05-10T12:12:35;1.52;;;0.68;;
19285;SDS011;9776;50.798;6.430;2023-05-10T12:15:08;2.58;;;0.70;;
19285;SDS011;9776;50.798;6.430;2023-05-10T12:17:37;2.20;;;1.30;;
19285;SDS011;9776;50.798;6.430;2023-05-10T12:20:14;1.20;;;1.00;;
19285;SDS011;9776;50.798;6.430;2023-05-10T12:22:45;1.70;;;1.50;;
19285;SDS011;9776;50.798;6.430;2023-05-10T12:25:13;1.80;;;1.50;;
19285;SDS011;9776;50.798;6.430;2023-05-10T12:27:40;1.20;;;1.10;;
19285;SDS011;9776;50.798;6.430;2023-05-10T12:30:09;1.88;;;1.20;;
19285;SDS011;9776;50.798;6.430;2023-05-10T12:32:37;1.13;;;1.00;;
19285;SDS011;9776;50.798;6.430;2023-05-10T12:35:06;1.40;;;1.30;;
19285;SDS011;9776;50.798;6.430;2023-05-10T12:37:33;2.22;;;1.42;;
19285;SDS011;9776;50.798;6.430;2023-05-10T12:40:04;2.20;;;1.98;;
19285;SDS011;9776;50.798;6.430;2023-05-10T12:42:34;1.77;;;1.45;;
19285;SDS011;9776;50.798;6.430;2023-05-10T12:45:01;2.88;;;1.80;;
19285;SDS011;9776;50.798;6.430;2023-05-10T12:47:29;2.95;;;2.00;;
19285;SDS011;9776;50.798;6.430;2023-05-10T12:49:56;2.20;;;1.80;;
19285;SDS011;9776;50.798;6.430;2023-05-10T12:52:23;2.03;;;1.67;;
19285;SDS011;9776;50.798;6.430;2023-05-10T12:54:51;2.50;;;1.77;;
19285;SDS011;9776;50.798;6.430;2023-05-10T12:57:18;2.38;;;1.70;;
19285;SDS011;9776;50.798;6.430;2023-05-10T12:59:44;2.17;;;1.70;;
19285;SDS011;9776;50.798;6.430;2023-05-10T13:02:11;2.10;;;1.70;;
19285;SDS011;9776;50.798;6.430;2023-05-10T13:04:41;2.35;;;1.65;;
19285;SDS011;9776;50.798;6.430;2023-05-10T13:07:07;2.15;;;1.50;;
19285;SDS011;9776;50.798;6.430;2023-05-10T13:09:34;1.80;;;1.60;;
19285;SDS011;9776;50.798;6.430;2023-05-10T13:12:01;1.40;;;1.20;;
19285;SDS011;9776;50.798;6.430;2023-05-10T13:14:28;2.25;;;1.20;;
19285;SDS011;9776;50.798;6.430;2023-05-10T13:16:55;1.35;;;1.02;;
19285;SDS011;9776;50.798;6.430;2023-05-10T13:19:22;1.42;;;0.90;;
19285;SDS011;9776;50.798;6.430;2023-05-10T13:21:50;1.70;;;1.10;;
19285;SDS011;9776;50.798;6.430;2023-05-10T13:24:17;1.23;;;1.02;;
19285;SDS011;9776;50.798;6.430;2023-05-10T13:26:43;1.52;;;1.20;;
19285;SDS011;9776;50.798;6.430;2023-05-10T13:29:10;1.65;;;1.08;;
19285;SDS011;9776;50.798;6.430;2023-05-10T13:31:37;1.85;;;1.20;;
19285;SDS011;9776;50.798;6.430;2023-05-10T13:34:03;2.13;;;1.10;;
19285;SDS011;9776;50.798;6.430;2023-05-10T13:36:31;1.85;;;1.15;;
19285;SDS011;9776;50.798;6.430;2023-05-10T13:38:59;1.75;;;1.20;;
19285;SDS011;9776;50.798;6.430;2023-05-10T13:41:27;1.30;;;1.10;;
19285;SDS011;9776;50.798;6.430;2023-05-10T13:43:54;1.80;;;1.42;;
19285;SDS011;9776;50.798;6.430;2023-05-10T13:46:21;1.65;;;1.35;;
19285;SDS011;9776;50.798;6.430;2023-05-10T13:48:48;3.45;;;1.42;;
19285;SDS011;9776;50.798;6.430;2023-05-10T13:51:14;1.50;;;1.10;;
19285;SDS011;9776;50.798;6.430;2023-05-10T13:53:41;2.78;;;1.40;;
19285;SDS011;9776;50.798;6.430;2023-05-10T13:56:09;2.30;;;1.30;;
19285;SDS011;9776;50.798;6.430;2023-05-10T13:58:36;1.45;;;1.20;;
19285;SDS011;9776;50.798;6.430;2023-05-10T14:01:03;2.63;;;1.50;;
19285;SDS011;9776;50.798;6.430;2023-05-10T14:03:30;2.33;;;1.42;;
19285;SDS011;9776;50.798;6.430;2023-05-10T14:05:57;2.05;;;1.15;;
19285;SDS011;9776;50.798;6.430;2023-05-10T14:08:24;2.17;;;1.40;;
19285;SDS011;9776;50.798;6.430;2023-05-10T14:10:52;1.88;;;1.23;;
19285;SDS011;9776;50.798;6.430;2023-05-10T14:13:20;1.55;;;1.40;;
19285;SDS011;9776;50.798;6.430;2023-05-10T14:15:46;1.98;;;1.42;;
19285;SDS011;9776;50.798;6.430;2023-05-10T14:18:13;2.92;;;1.50;;
19285;SDS011;9776;50.798;6.430;2023-05-10T14:20:40;2.53;;;1.60;;
19285;SDS011;9776;50.798;6.430;2023-05-10T14:23:06;2.03;;;1.48;;
19285;SDS011;9776;50.798;6.430;2023-05-10T14:25:33;2.15;;;1.58;;
19285;SDS011;9776;50.798;6.430;2023-05-10T14:28:00;3.08;;;2.00;;
19285;SDS011;9776;50.798;6.430;2023-05-10T14:30:28;2.55;;;1.65;;
19285;SDS011;9776;50.798;6.430;2023-05-10T14:32:55;2.28;;;1.73;;
19285;SDS011;9776;50.798;6.430;2023-05-10T14:35:23;3.17;;;2.28;;
19285;SDS011;9776;50.798;6.430;2023-05-10T14:37:50;2.72;;;1.50;;
19285;SDS011;9776;50.798;6.430;2023-05-10T14:40:16;2.30;;;1.50;;
19285;SDS011;9776;50.798;6.430;2023-05-10T14:42:43;1.88;;;1.65;;
19285;SDS011;9776;50.798;6.430;2023-05-10T14:45:10;2.72;;;1.50;;
19285;SDS011;9776;50.798;6.430;2023-05-10T14:47:38;2.40;;;1.70;;
19285;SDS011;9776;50.798;6.430;2023-05-10T14:50:06;2.28;;;1.40;;
19285;SDS011;9776;50.798;6.430;2023-05-10T14:52:33;2.05;;;1.40;;
19285;SDS011;9776;50.798;6.430;2023-05-10T14:54:59;1.88;;;1.38;;
19285;SDS011;9776;50.798;6.430;2023-05-10T14:57:26;3.15;;;2.20;;
19285;SDS011;9776;50.798;6.430;2023-05-10T14:59:54;2.05;;;1.60;;
19285;SDS011;9776;50.798;6.430;2023-05-10T15:02:21;2.78;;;1.63;;
19285;SDS011;9776;50.798;6.430;2023-05-10T15:04:49;2.92;;;1.45;;
19285;SDS011;9776;50.798;6.430;2023-05-10T15:07:16;2.33;;;1.55;;